Nearby METAR Reports

 

KCOS - Colorado Springs, Colorado, USA
Distance from station: S 6mi, 9km
Updated: 09/15/2019 12:54am
Mostly cloudy
Mostly cloudy
 Wind from NNW
Wind: NNW 9 mph , 15 km/h
Temperature: 63°F , 17°C
Dew Point: 46°F , 8°C
Humidity: 56%
Barometer: 30.27 inHg , 1025.1 hPa
Clouds: Mostly cloudy
Visibility: 10 miles , 16 km
Cloud details: Few Clouds 20000 ft
Mostly cloudy 25000 ft
2019/09/15 06:54 KCOS 150654Z 33008KT 10SM FEW200 BKN250 17/08 A3027 RMK AO2 SLP154 T01720078 403110122
KAFF - Usaf Academy/Cos, Colorado, USA
Distance from station: NW 7mi, 12km
Updated: 09/15/2019 12:58am
Clear
Clear
 Wind from N
Wind: N 8 mph , 13 km/h
Temperature: 57°F , 14°C
Dew Point: 34°F , 1°C
Humidity: 41%
Barometer: 30.27 inHg , 1025.1 hPa
Clouds: Clear
Visibility: 10 miles , 16 km
2019/09/15 06:58 KAFF 150658Z AUTO 35007KT 10SM CLR 14/01 A3027 RMK AO2 SLP157 T01350005 402910074
 
KFLY - Co Spngs Meadow, Colorado, USA
Distance from station: ENE 8mi, 13km
Updated: 09/15/2019 1:15am
Clear
Clear
 Wind from NNW
Wind: NNW 8 mph , 13 km/h
Temperature: 59°F , 15°C
Dew Point: 45°F , 7°C
Humidity: 59%
Barometer: 30.31 inHg , 1026.4 hPa
Clouds: Clear
Visibility: 10 miles , 16 km
2019/09/15 07:15 KFLY 150715Z AUTO 34007KT 10SM CLR 15/07 A3031 RMK AO2 T01520074
KFCS - Fort Carson, Colorado, USA
Distance from station: S 17mi, 27km
Updated: 09/15/2019 12:58am
Clear
Clear
 Wind from N
Wind: N 12 mph , 19 km/h
Temperature: 63°F , 17°C
Dew Point: 30°F , -1°C
Humidity: 30%
Barometer: 30.21 inHg , 1023 hPa
Clouds: Clear
Visibility: 10 miles , 16 km
2019/09/15 06:58 KFCS 150658Z AUTO 01010KT 10SM CLR 17/M01 A3021 RMK AO2 SLP168 T01711006 403120106 $
 
KMNH - Monument/Elbert, Colorado, USA
Distance from station: N 22mi, 35km
Updated: 09/15/2019 1:06am
Clear
Clear
 Wind from SSE
Wind: SSE 9 mph , 15 km/h
Temperature: 57°F , 14°C
Dew Point: 45°F , 7°C
Humidity: 63%
Barometer: 30.32 inHg , 1026.8 hPa
Clouds: Clear
Visibility: 10 miles , 16 km
2019/09/15 07:06 KMNH 150706Z AUTO 15008KT 10SM CLR 14/07 A3032 RMK AO2
K1V6 - Canon City, Colorado, USA
Distance from station: SSW 39mi, 62km
Updated: 09/14/2019 3:40pm
NOT Current
Clear
Clear
 Wind from WSW
Wind: WSW 6 mph , 9 km/h
Temperature: 95°F , 35°C
Dew Point: 18°F , -8°C
Humidity: 6%
Barometer: 30.12 inHg , 1020 hPa
Clouds: Clear
Visibility: 10 miles , 16 km
2019/09/14 21:40 K1V6 142140Z AUTO 25005KT 10SM CLR 35/M08 A3012 RMK AO2
 
KPUB - Pueblo, Colorado, USA
Distance from station: SSE 44mi, 71km
Updated: 09/15/2019 12:53am
Clear
Clear
 Wind from W
Wind: W 5 mph , 7 km/h
Temperature: 64°F , 18°C
Dew Point: 43°F , 6°C
Humidity: 46%
Barometer: 30.12 inHg , 1020 hPa
Clouds: Clear
Visibility: 10 miles , 16 km
2019/09/15 06:53 KPUB 150653Z AUTO 28004KT 10SM CLR 18/06 A3012 RMK AO2 SLP132 T01830061 403440089
KAPA - Denver/Arapahoe, Colorado, USA
Distance from station: N 47mi, 75km
Updated: 09/15/2019 12:53am
Mostly cloudy
Mostly cloudy
 Wind from S
Wind: S 9 mph , 15 km/h
Temperature: 66°F , 19°C
Dew Point: 39°F , 4°C
Humidity: 37%
Barometer: 30.24 inHg , 1024 hPa
Clouds: Mostly cloudy
Visibility: 10 miles , 16 km
Cloud details: Mostly cloudy 22000 ft
2019/09/15 06:53 KAPA 150653Z 17008KT 10SM BKN220 19/04 A3024 RMK AO2 SLP163 T01940044 403170094